Brazoria County Airport Angleton, Lake Jackson US
ICAO: KLBX
IATA: LBX
Category: Medium
Scheduled Services: No

Elevation: 25 ft
TransAlt. 18000 ft.

Airport Communications:
HOUSTON APP/DEP:134.45
ASOS:119.925
CLNC DEL:125.2
CTAF/UNICOM:123

KLBX Zoom In..

Runways:

(A) RW 17 length 7000 ft width 100 ft
ILS 109.10 / hdg 175

(B) RW 35 length 7000 ft width 100 ft
---- / hdg 355

Location; KLBX
Day. 26 / Time. 03.53 Zulu
* Altimeter: 29.91
* Temperature: 24° c. 75.2°f.
* Wind from: 220° Speed 03 kn.
Dewpoint: 23° c.
Visibility: 10 Statute Miles.
Clouds: Clear (automated report).

KLBX 260353Z AUTO 22003KT 10SM CLR 24/23 A2991 RMK AO2 SLP126 T02440228


Wind From 220°
Speed 03 kn.

 
 
jpsmedia.com for Web Design SOUNDCLOUD worldairports.se 2018   terms of use